Flight Track Log - Related Links

Times and Time Zones

All times are in EDT time to prevent confusion due to time zone crossing. See the SKQ225 flight status page for this flight to view local times or setup timezone preferences in your user account.

Time Position Orientation Groundspeed Altitude Reporting Facility
EDT Latitude Longitude Course Direction KTS MPH feet Rate Location/Type
Thu 01:46:13 AM 40.0650 -83.0997 229° Southwest 143 165 1,500  Level Indianapolis Center
Thu 01:46:31 AM 40.0581 -83.1100 229° Southwest 140 161 1,800 989 Climbing Indianapolis Center
Thu 01:47:44 AM 40.0256 -83.1550 227° Southwest 145 167 3,000 932 Climbing Indianapolis Center
Thu 01:48:14 AM 40.0147 -83.1692 225° Southwest 138 159 3,400 885 Climbing Indianapolis Center
Thu 01:48:45 AM 39.9978 -83.1928 227° Southwest 144 166 3,900 1,000 Climbing Indianapolis Center
Thu 01:49:14 AM 39.9875 -83.2083 229° Southwest 142 163 4,400 900 Climbing Indianapolis Center
Thu 01:49:45 AM 39.9719 -83.2331 231° Southwest 146 168 4,800 900 Climbing Indianapolis Center
Thu 01:50:14 AM 39.9597 -83.2489 225° Southwest 145 167 5,300 885 Climbing Indianapolis Center
Thu 01:50:46 AM 39.9417 -83.2758 229° Southwest 154 177 5,700 700 Climbing Indianapolis Center
Thu 01:51:14 AM 39.9303 -83.2917 227° Southwest 151 174 6,000 200 Climbing Indianapolis Center
Thu 01:51:46 AM 39.9114 -83.3211 230° Southwest 177 204 5,900  Descending Indianapolis Center
Thu 01:52:15 AM 39.8978 -83.3372 222° Southwest 161 185 6,000  Climbing Indianapolis Center
Thu 01:52:47 AM 39.8764 -83.3686 228° Southwest 179 206 5,900  Descending Indianapolis Center
Thu 01:53:15 AM 39.8633 -83.3875 228° Southwest 173 199 6,000  Climbing Indianapolis Center
Thu 01:53:48 AM 39.8436 -83.4189 231° Southwest 182 209 5,900  Descending Indianapolis Center
Thu 01:54:15 AM 39.8289 -83.4381 225° Southwest 179 206 6,000  Climbing Indianapolis Center
Thu 01:54:42 AM 39.8111 -83.4639 228° Southwest 198 228 5,900  Descending Indianapolis Center
Thu 01:55:15 AM 39.7939 -83.4878 227° Southwest 180 207 6,000  Climbing Indianapolis Center
Thu 01:55:43 AM 39.7803 -83.5117 233° Southwest 175 201 5,900  Descending Indianapolis Center
Thu 01:56:15 AM 39.7653 -83.5286 221° Southwest 179 206 6,000  Climbing Indianapolis Center
Thu 01:56:43 AM 39.7456 -83.5589 230° Southwest 177 204 5,900  Descending Indianapolis Center
Thu 01:57:16 AM 39.7311 -83.5772 224° Southwest 179 206 6,000 98 Climbing Indianapolis Center
Thu 01:57:44 AM 39.7125 -83.6064 230° Southwest 180 207 6,000  Level Indianapolis Center
Thu 01:58:16 AM 39.6981 -83.6250 225° Southwest 178 205 6,000  Level Indianapolis Center
Thu 01:58:45 AM 39.6778 -83.6536 227° Southwest 179 206 6,000  Level Indianapolis Center
Thu 01:59:16 AM 39.6636 -83.6739 228° Southwest 180 207 6,000  Level Indianapolis Center
Thu 01:59:51 AM 39.6400 -83.7086 229° Southwest 179 206 6,000  Level Indianapolis Center
Thu 02:00:16 AM 39.6294 -83.7222 225° Southwest 180 207 6,000  Level Indianapolis Center
Thu 02:00:52 AM 39.6072 -83.7561 230° Southwest 181 208 6,000  Level Indianapolis Center
Thu 02:01:17 AM 39.5958 -83.7708 225° Southwest 180 207 6,000  Level Indianapolis Center
Thu 02:02:17 AM 39.5619 -83.8189 228° Southwest 179 206 6,000  Level Indianapolis Center
Thu 02:03:17 AM 39.5283 -83.8672 228° Southwest 179 206 6,000  Level Indianapolis Center
Thu 02:04:17 AM 39.4931 -83.9172 228° Southwest 183 211 6,000  Level Indianapolis Center
Thu 02:05:17 AM 39.4592 -83.9661 228° Southwest 182 209 6,000  Level Indianapolis Center
Thu 02:06:18 AM 39.4242 -84.0153 227° Southwest 183 211 6,000  Level Indianapolis Center
Thu 02:07:18 AM 39.3908 -84.0633 228° Southwest 180 207 6,000  Level Indianapolis Center
Thu 02:08:18 AM 39.3556 -84.1122 227° Southwest 182 209 6,000  Level Indianapolis Center
Thu 02:09:18 AM 39.3217 -84.1608 228° Southwest 182 209 6,000  Level Indianapolis Center
Thu 02:10:18 AM 39.2878 -84.2075 227° Southwest 178 205 6,000  Level Indianapolis Center
Thu 02:11:18 AM 39.2528 -84.2581 228° Southwest 185 213 6,000  Level Indianapolis Center
Thu 02:12:19 AM 39.2197 -84.3061 228° Southwest 180 207 6,000  Level Indianapolis Center
Thu 02:13:19 AM 39.1839 -84.3544 226° Southwest 184 212 6,000  Level Indianapolis Center
Thu 02:14:19 AM 39.1494 -84.4014 227° Southwest 181 208 6,000 -50 Level Indianapolis Center
Thu 02:15:18 AM 39.1167 -84.4500 229° Southwest 182 209 5,900  Descending Cincinnati TRACON
Thu 02:16:24 AM 39.0833 -84.5000 229° Southwest 180 207 6,000 48 Climbing Cincinnati TRACON
Thu 02:17:24 AM 39.0500 -84.5500 229° Southwest 181 208 6,000  Level Cincinnati TRACON
Thu 02:18:24 AM 39.0167 -84.6000 229° Southwest 179 206 6,000 -50 Level Cincinnati TRACON
Thu 02:19:24 AM 38.9833 -84.6333 218° Southwest 179 206 5,900 -50 Descending Cincinnati TRACON
Thu 02:20:24 AM 38.9500 -84.6833 229° Southwest 180 207 5,900 50 Level Cincinnati TRACON
Thu 02:21:24 AM 38.9167 -84.7333 229° Southwest 180 207 6,000 50 Climbing Cincinnati TRACON
Thu 02:22:25 AM 38.8667 -84.7833 218° Southwest 182 209 6,000 -51 Level Cincinnati TRACON
Thu 02:23:21 AM 38.8444 -84.8261 236° Southwest 180 207 5,900  Descending Indianapolis Center
Thu 02:24:21 AM 38.8100 -84.8722 226° Southwest 178 205 6,000 50 Climbing Indianapolis Center
Thu 02:25:21 AM 38.7764 -84.9194 228° Southwest 178 205 6,000  Level Indianapolis Center
Thu 02:26:21 AM 38.7408 -84.9683 227° Southwest 185 213 6,000 -50 Level Indianapolis Center
Thu 02:27:21 AM 38.7067 -85.0150 227° Southwest 181 208 5,900 -50 Descending Indianapolis Center
Thu 02:28:22 AM 38.6725 -85.0628 228° Southwest 181 208 5,900 50 Level Indianapolis Center
Thu 02:29:22 AM 38.6378 -85.1106 227° Southwest 182 209 6,000  Climbing Indianapolis Center
Thu 02:30:22 AM 38.6014 -85.1569 225° Southwest 183 211 5,900  Descending Indianapolis Center
Thu 02:31:22 AM 38.5672 -85.2050 228° Southwest 183 211 6,000 76 Climbing Indianapolis Center
Thu 02:31:41 AM 38.5561 -85.2211 229° Southwest 181 208 6,000  Level FAA TRACON SMA TRACON (SMA)
Thu 02:32:00 AM 38.5450 -85.2350 224° Southwest 180 207 6,000  Level FAA TRACON SMA TRACON (SMA)
Thu 02:32:21 AM 38.5344 -85.2497 227° Southwest 182 209 6,000 -293 Level FAA TRACON SMA TRACON (SMA)
Thu 02:32:41 AM 38.5208 -85.2681 227° Southwest 184 212 5,800 -450 Descending FAA TRACON SMA TRACON (SMA)
Thu 02:33:01 AM 38.5092 -85.2825 224° Southwest 188 216 5,700 -450 Descending FAA TRACON SMA TRACON (SMA)
Thu 02:33:21 AM 38.4986 -85.2986 230° Southwest 192 221 5,500 -450 Descending FAA TRACON SMA TRACON (SMA)
Thu 02:33:41 AM 38.4850 -85.3172 227° Southwest 191 220 5,400 -450 Descending FAA TRACON SMA TRACON (SMA)
Thu 02:34:01 AM 38.4736 -85.3325 226° Southwest 190 219 5,200 -600 Descending FAA TRACON SMA TRACON (SMA)
Thu 02:34:21 AM 38.4619 -85.3478 226° Southwest 192 221 5,000 -600 Descending FAA TRACON SMA TRACON (SMA)
Thu 02:34:41 AM 38.4497 -85.3681 232° Southwest 190 219 4,800 -450 Descending FAA TRACON SMA TRACON (SMA)
Thu 02:35:01 AM 38.4411 -85.3850 237° Southwest 187 215 4,700 -450 Descending FAA TRACON SMA TRACON (SMA)
Thu 02:35:21 AM 38.4317 -85.4008 233° Southwest 185 213 4,500 -600 Descending FAA TRACON SMA TRACON (SMA)
Thu 02:35:41 AM 38.4200 -85.4217 234° Southwest 187 215 4,300 -600 Descending FAA TRACON SMA TRACON (SMA)
Thu 02:36:01 AM 38.4103 -85.4383 233° Southwest 189 217 4,100 -600 Descending FAA TRACON SMA TRACON (SMA)
Thu 02:36:21 AM 38.4006 -85.4550 233° Southwest 192 221 3,900 -750 Descending FAA TRACON SMA TRACON (SMA)
Thu 02:36:41 AM 38.3881 -85.4761 233° Southwest 193 222 3,600 -750 Descending FAA TRACON SMA TRACON (SMA)
Thu 02:37:01 AM 38.3778 -85.4922 231° Southwest 192 221 3,400 -600 Descending FAA TRACON SMA TRACON (SMA)
Thu 02:37:21 AM 38.3689 -85.5092 236° Southwest 187 215 3,200 -750 Descending FAA TRACON SMA TRACON (SMA)
Thu 02:37:41 AM 38.3572 -85.5292 233° Southwest 184 212 2,900 -750 Descending FAA TRACON SMA TRACON (SMA)
Thu 02:38:01 AM 38.3481 -85.5456 235° Southwest 184 212 2,700 -615 Descending FAA TRACON SMA TRACON (SMA)
Thu 02:38:20 AM 38.3383 -85.5608 231° Southwest 182 209 2,500 -600 Descending FAA TRACON SMA TRACON (SMA)
Thu 02:38:41 AM 38.3261 -85.5806 232° Southwest 183 211 2,300 -585 Descending FAA TRACON SMA TRACON (SMA)
Thu 02:39:01 AM 38.3172 -85.5964 234° Southwest 181 208 2,100 -600 Descending FAA TRACON SMA TRACON (SMA)
Thu 02:39:21 AM 38.3058 -85.6156 233° Southwest 177 204 1,900 -150 Descending FAA TRACON SMA TRACON (SMA)
Thu 02:39:41 AM 38.2969 -85.6294 231° Southwest 169 194 2,000  Climbing FAA TRACON SMA TRACON (SMA)
Thu 02:40:01 AM 38.2881 -85.6428 230° Southwest 162 186 1,900 -150 Descending FAA TRACON SMA TRACON (SMA)
Thu 02:40:21 AM 38.2794 -85.6561 231° Southwest 158 182 1,900  Level FAA TRACON SMA TRACON (SMA)
Thu 02:40:41 AM 38.2686 -85.6719 229° Southwest 155 178 1,900 150 Level FAA TRACON SMA TRACON (SMA)
Thu 02:41:01 AM 38.2597 -85.6842 227° Southwest 154 177 2,000 150 Climbing FAA TRACON SMA TRACON (SMA)
Thu 02:41:21 AM 38.2506 -85.6956 224° Southwest 151 174 2,000 -150 Level FAA TRACON SMA TRACON (SMA)
Thu 02:41:41 AM 38.2378 -85.7078 217° Southwest 148 170 1,900 -450 Descending FAA TRACON SMA TRACON (SMA)
Thu 02:42:01 AM 38.2281 -85.7164 215° Southwest 142 163 1,700 -750 Descending FAA TRACON SMA TRACON (SMA)
Thu 02:42:21 AM 38.2167 -85.7261 214° Southwest 130 150 1,400 -750 Descending FAA TRACON SMA TRACON (SMA)
Thu 02:42:41 AM 38.2078 -85.7322 208° Southwest 121 139 1,200 -750 Descending FAA TRACON SMA TRACON (SMA)
Thu 02:43:01 AM 38.1983 -85.7342 189° South 116 133 900 -750 Descending FAA TRACON SMA TRACON (SMA)
Thu 02:43:21 AM 38.1897 -85.7317 167° South 109 125 700 -600 Descending FAA TRACON SMA TRACON (SMA)

Login

Don't have an account? Register now (free) for customized features, flight alerts, and more!